• Join FlightAware (Why Join?)
  • Login
  • US Flag 
08:02PM EST


 

Airport Tracker/Info


-or-


 

Live Flight TrackerFlight Track Log ✈ UPS2062 ✈ 19-Dec-2013 ✈ KSDF - KBDL

Flight Track Log - Related Links

Times and Time Zones

All times are in EST time to prevent confusion due to time zone crossing. See the UPS2062 flight status page for this flight to view local times or setup timezone preferences in your user account.

Time Position Orientation Groundspeed Altitude Reporting Facility
EST Latitude Longitude Course Direction KTS MPH feet Rate Location/Type
03:15PM 38.1586 -85.7383 358° North 158 182 37,000  Level Indianapolis Center
03:16PM 38.0928 -85.7361 178° South 207 238 4,400 -12,840 Descending Indianapolis Center
03:17PM 38.0761 -85.8006 252° West 208 239 7,800 2,640 Climbing Indianapolis Center
03:18PM 38.0753 -85.8767 269° West 215 247 9,900 1,440 Climbing Indianapolis Center
03:19PM 38.1943 -85.4441 North  Level Estimated
03:19PM 38.1356 -85.9175 332° Northwest 286 329 10,800  Level Indianapolis Center
03:20PM 38.2469 -85.3002 358° North  Level Estimated
03:20PM 38.2103 -85.8225 45° Northeast 384 442 13,100  Level Indianapolis Center
03:26PM 38.7022 -85.0633 45° Northeast 516 594 28,700 2,580 Climbing FlightAware ADS-B (KCVG)
03:27PM 38.7939 -84.9206 50° Northeast 513 590 31,200 2,460 Climbing FlightAware ADS-B (KCVG)
03:28PM 38.8604 -84.8165 51° Northeast 507 583 32,900 2,040 Climbing FlightAware ADS-B (KCVG)
03:28PM 38.8797 -84.7864 51° Northeast 505 581 34,000 1,740 Climbing FlightAware ADS-B (KCVG)
03:29PM 38.9639 -84.6543 51° Northeast 505 581 35,300 1,500 Climbing FlightAware ADS-B (KCVG)
03:30PM 39.0226 -84.5618 51° Northeast 508 585 36,000 480 Climbing FlightAware ADS-B (KCVG)
03:30PM 39.1056 -84.4308 51° Northeast 510 587 36,000  Level FlightAware ADS-B
03:31PM 39.1702 -84.3282 51° Northeast 508 585 36,000  Level FlightAware ADS-B
03:32PM 39.2242 -84.2424 51° Northeast 507 583 36,000  Level FlightAware ADS-B
03:32PM 39.2873 -84.1417 51° Northeast 505 581 36,000  Level FlightAware ADS-B
03:33PM 39.3659 -84.0158 51° Northeast 502 578 36,100 480 Climbing FlightAware ADS-B
03:34PM 39.3659 -84.0158 51° Northeast 499 574 37,000 420 Climbing FlightAware ADS-B
03:35PM 39.5491 -83.7205 51° Northeast 507 583 37,000  Level FlightAware ADS-B
03:36PM 39.6080 -83.6251 51° Northeast 507 583 37,000  Level FlightAware ADS-B
03:37PM 39.6612 -83.5386 51° Northeast 507 583 37,000  Level FlightAware ADS-B
03:40PM 39.9466 -83.0702 51° Northeast 506 582 37,000  Level FlightAware ADS-B
03:42PM 40.0773 -82.8532 52° Northeast 505 581 37,000  Level FlightAware ADS-B
03:42PM 40.1315 -82.7629 52° Northeast 505 581 37,000  Level FlightAware ADS-B
03:43PM 40.1917 -82.6622 52° Northeast 506 582 37,000  Level FlightAware ADS-B
03:43PM 40.2322 -82.5943 52° Northeast 506 582 37,000  Level FlightAware ADS-B
03:44PM 40.2933 -82.4916 52° Northeast 506 582 37,000  Level FlightAware ADS-B
03:45PM 40.3848 -82.3373 52° Northeast 506 582 37,000  Level FlightAware ADS-B
03:46PM 40.4433 -82.2381 52° Northeast 505 581 37,000  Level Indianapolis Center
03:47PM 40.5439 -82.0669 52° Northeast 505 581 37,000  Level Indianapolis Center
03:48PM 40.6194 -81.9086 58° Northeast 505 581 37,000  Level Indianapolis Center
03:49PM 40.6878 -81.7419 62° Northeast 512 589 37,000  Level Indianapolis Center
03:50PM 40.7553 -81.5742 62° Northeast 515 593 37,000  Level Indianapolis Center
03:51PM 40.8231 -81.4061 62° Northeast 518 596 37,000  Level Indianapolis Center
03:52PM 40.8892 -81.2364 63° Northeast 519 597 37,000  Level Indianapolis Center
03:53PM 40.9675 -81.0392 62° Northeast 520 598 37,000  Level Indianapolis Center
03:54PM 41.0336 -80.8694 63° Northeast 519 597 37,000  Level Indianapolis Center
03:55PM 41.0997 -80.6981 63° Northeast 519 597 37,000  Level Indianapolis Center
03:57PM 41.1986 -80.4431 63° Northeast 520 598 37,000  Level Cleveland Center
03:58PM 41.2572 -80.2928 63° Northeast 520 598 37,000  Level Cleveland Center
03:59PM 41.3353 -80.0872 63° Northeast 520 598 37,000  Level Cleveland Center
04:00PM 41.4025 -79.9122 63° Northeast 520 598 37,000  Level Cleveland Center
04:01PM 41.4667 -79.7394 64° Northeast 521 600 37,000  Level Cleveland Center
04:02PM 41.5314 -79.5678 63° Northeast 520 598 37,000  Level Cleveland Center
04:03PM 41.5961 -79.3931 64° Northeast 523 602 37,000  Level Cleveland Center
04:04PM 41.6672 -79.1997 64° Northeast 520 598 37,000  Level Cleveland Center
04:05PM 41.7314 -79.0261 64° Northeast 521 600 37,000  Level Cleveland Center
04:06PM 41.8000 -78.8356 64° Northeast 523 602 37,000  Level Cleveland Center
04:07PM 41.8633 -78.6622 64° Northeast 521 600 37,000  Level Cleveland Center
04:08PM 41.9267 -78.4864 64° Northeast 522 601 37,000  Level Cleveland Center
04:09PM 41.9894 -78.3114 64° Northeast 522 601 37,000  Level Cleveland Center
04:10PM 42.0589 -78.1175 64° Northeast 523 602 37,000  Level Cleveland Center
04:11PM 42.1211 -77.9433 64° Northeast 521 600 37,000 -360 Level Cleveland Center
04:12PM 42.1833 -77.7678 64° Northeast 523 602 36,300 -960 Descending Cleveland Center
04:13PM 42.2436 -77.5914 65° Northeast 524 603 35,100 -660 Descending Cleveland Center
04:14PM 42.3169 -77.3825 65° Northeast 521 600 35,000 -60 Descending Cleveland Center
04:15PM 42.3775 -77.2072 65° Northeast 521 600 35,000  Level Cleveland Center
04:16PM 42.4336 -77.0253 67° East 527 606 35,000  Level Cleveland Center
04:17PM 42.4567 -76.8689 79° East 538 619 35,000  Level Boston Center
04:18PM 42.4789 -76.6672 81° East 542 624 35,000  Level Boston Center
04:19PM 42.5044 -76.4247 82° East 545 627 35,000  Level Boston Center
04:20PM 42.5239 -76.2339 82° East 549 632 35,000 -60 Level Boston Center
04:21PM 42.5297 -76.0447 88° East 549 632 34,900 -960 Descending Boston Center
04:22PM 42.5075 -75.8011 97° East 550 633 33,100 -1,800 Descending Boston Center
04:23PM 42.4906 -75.6031 97° East 539 620 31,300 -1,740 Descending Boston Center
04:24PM 42.4786 -75.4111 95° East 520 598 29,600 -1,620 Descending Boston Center
04:25PM 42.4675 -75.2236 95° East 507 583 28,000 -1,620 Descending Boston Center
04:26PM 42.4714 -75.0383 88° East 496 571 26,400 -1,680 Descending Boston Center
04:27PM 42.4747 -74.8542 89° East 491 565 24,700 -1,680 Descending Boston Center
04:28PM 42.4783 -74.6789 88° East 474 545 23,100 -1,560 Descending Boston Center
04:30PM 42.4825 -74.4731 88° East 460 529 21,500 -1,260 Descending Boston Center
04:31PM 42.4847 -74.3319 89° East 446 513 20,500 -1,260 Descending Boston Center
04:32PM 42.4767 -74.1506 93° East 426 490 19,000 -1,440 Descending Boston Center
04:33PM 42.4472 -73.9897 104° East 410 472 17,700 -1,020 Descending Boston Center
04:34PM 42.4206 -73.8486 104° East 393 452 17,000 -1,080 Descending Boston Center
04:35PM 42.3931 -73.7106 105° East 384 442 15,500 -1,320 Descending Boston Center
04:36PM 42.3658 -73.5772 105° East 376 433 14,500 -1,140 Descending Boston Center
04:36PM 42.3636 -73.5628 102° East 380 437 14,400 -1,140 Descending Boston Center
04:36PM 42.3461 -73.4733 105° East 372 428 13,600 -1,140 Descending Boston Center
04:37PM 42.3378 -73.4297 104° East 369 425 13,300 -1,080 Descending Boston Center
04:38PM 42.3114 -73.2950 105° East 358 412 12,200 -1,080 Descending Boston Center
04:38PM 42.2933 -73.2147 107° East 335 386 11,500 -1,020 Descending Boston Center
04:39PM 42.2869 -73.1742 102° East 339 390 11,200 -1,500 Descending Boston Center
04:39PM 42.2683 -73.0922 107° East 339 390 10,000 -1,860 Descending Boston Center
04:41PM 42.2333 -72.9342 107° East 335 386 7,500 -1,740 Descending Boston Center
04:42PM 42.2014 -72.8033 108° East 320 368 5,800 -1,560 Descending Boston Center
04:43PM 42.1742 -72.6919 108° East 304 350 4,300 -1,140 Descending Boston Center
04:44PM 42.1414 -72.5961 115° Southeast 262 302 3,600 -900 Descending Boston Center
04:45PM 42.0997 -72.5347 132° Southeast 222 255 2,600 -660 Descending Boston Center
04:45PM 42.0692 -72.5356 181° South 185 213 2,600 -180 Level Boston Center
04:47PM 42.0244 -72.5772 215° Southwest 146 168 2,300 -480 Descending Boston Center
04:48PM 41.9961 -72.6106 221° Southwest 130 150 1,600 -780 Descending Boston Center
04:49PM 41.9694 -72.6472 226° Southwest 138 159 800 -840 Descending Boston Center